createdAt,value
2022-09-07T00:00:41.758Z,7.48
2022-09-07T00:03:08.979Z,5.67
2022-09-07T00:05:45.231Z,9.17
2022-09-07T00:08:12.983Z,9.21
2022-09-07T00:10:40.216Z,6.00
2022-09-07T00:13:08.453Z,9.16
2022-09-07T00:15:40.706Z,6.82
2022-09-07T00:18:08.100Z,4.38
2022-09-07T00:20:35.198Z,8.68
2022-09-07T00:23:02.227Z,8.76
2022-09-07T00:25:31.944Z,8.61
2022-09-07T00:27:59.658Z,8.65
2022-09-07T00:30:27.583Z,7.99
2022-09-07T00:32:54.568Z,7.03
2022-09-07T00:35:21.790Z,8.10
2022-09-07T00:37:48.847Z,7.72
2022-09-07T00:40:16.069Z,8.28
2022-09-07T00:42:43.099Z,7.96
2022-09-07T00:45:19.217Z,2.89
2022-09-07T00:48:04.988Z,8.62
2022-09-07T00:50:37.519Z,8.24
2022-09-07T00:53:16.495Z,8.56
2022-09-07T00:55:47.759Z,8.52
2022-09-07T00:58:15.581Z,6.86
2022-09-07T01:00:45.875Z,7.94
2022-09-07T01:03:16.390Z,7.54
2022-09-07T01:05:48.454Z,8.34
2022-09-07T01:08:15.700Z,7.14
2022-09-07T01:10:42.952Z,6.34
2022-09-07T01:13:09.929Z,6.79
2022-09-07T01:16:08.059Z,8.04
2022-09-07T01:19:07.471Z,7.98
2022-09-07T01:21:34.441Z,7.98
2022-09-07T01:24:22.945Z,8.01
2022-09-07T01:27:08.794Z,7.90
2022-09-07T01:29:46.494Z,7.82
2022-09-07T01:32:42.274Z,6.67
2022-09-07T01:35:32.861Z,6.02
2022-09-07T01:38:16.083Z,7.57
2022-09-07T01:40:54.818Z,7.52
2022-09-07T01:43:46.001Z,7.47
2022-09-07T01:46:23.027Z,7.39
2022-09-07T01:48:53.542Z,7.34
2022-09-07T01:51:23.519Z,-1.71
2022-09-07T01:54:02.241Z,7.26
2022-09-07T01:56:36.908Z,7.13
2022-09-07T01:59:15.160Z,7.09
2022-09-07T02:01:50.582Z,6.70
2022-09-07T02:04:21.713Z,6.01
2022-09-07T02:07:02.056Z,2.98
2022-09-07T02:09:52.750Z,6.33
2022-09-07T02:12:29.142Z,6.78
2022-09-07T02:15:02.619Z,1.37
2022-09-07T02:17:36.213Z,6.63
2022-09-07T02:20:14.063Z,5.31
2022-09-07T02:22:46.245Z,4.95
2022-09-07T02:25:21.974Z,5.09
2022-09-07T02:27:55.735Z,5.50
2022-09-07T02:30:22.759Z,5.34
2022-09-07T02:32:49.826Z,4.34
2022-09-07T02:35:17.634Z,2.43
2022-09-07T02:37:45.921Z,3.80
2022-09-07T02:40:13.348Z,6.09
2022-09-07T02:42:40.738Z,5.22
2022-09-07T02:45:11.283Z,4.97
2022-09-07T02:48:08.056Z,6.03
2022-09-07T02:51:12.510Z,4.98
2022-09-07T02:53:58.132Z,5.85
2022-09-07T02:56:43.993Z,5.85
2022-09-07T02:59:37.543Z,5.75
2022-09-07T03:02:08.126Z,5.75
2022-09-07T03:04:48.430Z,4.98
2022-09-07T03:07:19.195Z,5.70
2022-09-07T03:09:50.581Z,4.68
2022-09-07T03:12:17.833Z,4.52
2022-09-07T03:14:45.255Z,5.30
2022-09-07T03:17:12.715Z,2.34
2022-09-07T03:19:39.774Z,5.20
2022-09-07T03:22:07.235Z,4.91
2022-09-07T03:24:34.484Z,4.38
2022-09-07T03:27:01.479Z,3.54
2022-09-07T03:29:28.651Z,2.62
2022-09-07T03:31:55.626Z,2.99
2022-09-07T03:34:22.568Z,1.69
2022-09-07T03:36:49.521Z,1.16
2022-09-07T03:39:16.606Z,4.49
2022-09-07T03:41:43.634Z,3.69
2022-09-07T03:44:10.876Z,3.03
2022-09-07T03:46:37.801Z,4.87
2022-09-07T03:49:04.883Z,4.74
2022-09-07T03:51:31.928Z,-0.37
2022-09-07T03:54:00.939Z,3.36
2022-09-07T03:56:27.972Z,4.89
2022-09-07T03:58:55.992Z,4.15
2022-09-07T04:01:25.610Z,5.16
2022-09-07T04:03:54.910Z,5.17
2022-09-07T04:06:24.008Z,3.38
2022-09-07T04:08:51.271Z,2.30
2022-09-07T04:11:19.687Z,4.20
2022-09-07T04:13:46.766Z,5.13
2022-09-07T04:16:21.350Z,5.12
2022-09-07T04:18:50.624Z,4.64
2022-09-07T04:21:18.927Z,5.12
2022-09-07T04:23:46.437Z,4.08
2022-09-07T04:26:15.853Z,5.14
2022-09-07T04:28:42.906Z,4.19
2022-09-07T04:31:10.266Z,5.30
2022-09-07T04:33:37.520Z,4.20
2022-09-07T04:36:05.508Z,5.41
2022-09-07T04:38:32.601Z,4.76
2022-09-07T04:41:09.722Z,4.69
2022-09-07T04:43:38.331Z,5.61
2022-09-07T04:46:07.959Z,4.65
2022-09-07T04:48:35.610Z,5.79
2022-09-07T04:51:10.430Z,5.88
2022-09-07T04:53:39.098Z,6.01
2022-09-07T04:56:06.510Z,5.70
2022-09-07T04:58:33.878Z,4.63
2022-09-07T05:01:02.636Z,5.10
2022-09-07T05:03:31.360Z,6.29
2022-09-07T05:06:01.633Z,5.42
2022-09-07T05:08:29.720Z,5.90
2022-09-07T05:10:57.989Z,4.95
2022-09-07T05:13:25.859Z,5.57
2022-09-07T05:15:52.891Z,5.05
2022-09-07T05:18:19.930Z,6.71
2022-09-07T05:20:47.139Z,6.32
2022-09-07T05:23:14.481Z,5.07
2022-09-07T05:25:46.060Z,7.58
2022-09-07T05:28:18.584Z,7.71
2022-09-07T05:36:21.778Z,5.81
2022-09-07T05:38:48.729Z,3.56
2022-09-07T05:41:20.218Z,8.50
2022-09-07T05:46:35.149Z,8.01
2022-09-07T05:49:03.657Z,6.58
2022-09-07T05:51:30.650Z,3.38
2022-09-07T05:53:59.039Z,9.13
2022-09-07T05:56:26.652Z,8.50
2022-09-07T05:58:53.647Z,6.93
2022-09-07T06:01:20.850Z,9.45
2022-09-07T06:03:47.868Z,9.36
2022-09-07T06:06:19.711Z,7.85
2022-09-07T06:08:49.631Z,7.73
2022-09-07T06:11:22.120Z,9.98
2022-09-07T06:13:49.844Z,8.30
2022-09-07T06:16:17.971Z,9.11
2022-09-07T06:18:47.302Z,10.39
2022-09-07T06:21:17.266Z,8.62
2022-09-07T06:23:45.797Z,8.91
2022-09-07T06:26:14.239Z,7.59
2022-09-07T06:28:43.423Z,10.66
2022-09-07T06:31:13.986Z,9.81
2022-09-07T06:33:42.503Z,10.23
2022-09-07T06:36:17.554Z,11.51
2022-09-07T06:38:45.287Z,11.60
2022-09-07T06:44:04.277Z,11.00
2022-09-07T06:49:18.331Z,11.12
2022-09-07T06:51:45.359Z,12.19
2022-09-07T06:56:59.732Z,11.96
2022-09-07T06:59:26.750Z,12.30
2022-09-07T07:01:53.710Z,12.27
2022-09-07T07:04:20.934Z,11.33
2022-09-07T07:06:47.838Z,8.46
2022-09-07T07:09:14.847Z,12.60
2022-09-07T07:11:43.852Z,12.32
2022-09-07T07:14:18.142Z,12.64
2022-09-07T07:16:45.858Z,13.63
2022-09-07T07:19:13.560Z,10.58
2022-09-07T07:22:07.359Z,12.84
2022-09-07T07:24:27.969Z,13.76
2022-09-07T07:26:54.989Z,8.52
2022-09-07T07:29:23.874Z,12.89
2022-09-07T07:31:52.188Z,13.26
2022-09-07T07:34:19.405Z,10.53
2022-09-07T07:36:46.376Z,13.45
2022-09-07T07:42:03.266Z,12.77
2022-09-07T07:44:31.922Z,11.82
2022-09-07T07:46:58.915Z,13.50
2022-09-07T07:49:26.101Z,13.15
2022-09-07T07:54:44.160Z,13.63
2022-09-07T07:57:12.117Z,14.76
2022-09-07T07:59:39.785Z,15.96
2022-09-07T08:02:09.081Z,15.82
2022-09-07T08:04:36.499Z,14.60
2022-09-07T08:07:09.446Z,16.22
2022-09-07T08:09:37.620Z,15.63
2022-09-07T08:12:04.585Z,8.41
2022-09-07T08:14:31.572Z,16.57
2022-09-07T08:16:58.492Z,14.96
2022-09-07T08:19:25.303Z,15.89
2022-09-07T08:21:52.246Z,15.69
2022-09-07T08:24:19.568Z,13.77
2022-09-07T08:26:48.070Z,16.96
2022-09-07T08:29:15.471Z,15.95
2022-09-07T08:31:42.618Z,17.06
2022-09-07T08:34:09.591Z,16.16
2022-09-07T08:36:36.536Z,16.70
2022-09-07T08:39:03.603Z,17.23
2022-09-07T08:41:57.895Z,16.91
2022-09-07T08:44:39.034Z,17.15
2022-09-07T08:47:43.974Z,16.59
2022-09-07T08:50:39.087Z,17.55
2022-09-07T08:53:15.395Z,16.79
2022-09-07T08:56:11.676Z,17.68
2022-09-07T08:58:49.629Z,17.88
2022-09-07T09:01:37.900Z,17.37
2022-09-07T09:04:16.572Z,16.10
2022-09-07T09:06:53.387Z,18.23
2022-09-07T09:09:38.227Z,16.94
2022-09-07T09:12:44.221Z,17.60
2022-09-07T09:15:11.160Z,17.99
2022-09-07T09:17:47.329Z,17.76
2022-09-07T09:20:24.546Z,18.04
2022-09-07T09:22:57.262Z,17.75
2022-09-07T09:25:33.828Z,17.83
2022-09-07T09:28:01.314Z,18.29
2022-09-07T09:30:29.470Z,17.02
2022-09-07T09:33:23.194Z,17.86
2022-09-07T09:35:52.583Z,18.53
2022-09-07T09:38:30.334Z,18.55
2022-09-07T09:41:00.478Z,18.42
2022-09-07T09:43:52.541Z,18.36
2022-09-07T09:46:39.847Z,17.65
2022-09-07T09:49:23.326Z,17.84
2022-09-07T09:54:49.249Z,18.82
2022-09-07T09:57:17.938Z,17.66
2022-09-07T10:00:03.857Z,16.68
2022-09-07T10:05:38.923Z,18.99
2022-09-07T10:08:30.886Z,18.70
2022-09-07T10:11:06.810Z,19.09
2022-09-07T10:13:55.629Z,19.08
2022-09-07T10:16:41.906Z,17.31
2022-09-07T10:19:37.454Z,16.92
2022-09-07T10:22:26.458Z,18.54
2022-09-07T10:24:53.533Z,13.93
2022-09-07T10:27:30.663Z,18.15
2022-09-07T10:29:58.058Z,17.71
2022-09-07T10:33:05.156Z,18.44
2022-09-07T10:35:36.039Z,18.50
2022-09-07T10:38:25.041Z,17.78
2022-09-07T10:41:02.010Z,19.41
2022-09-07T10:43:46.061Z,14.30
2022-09-07T10:49:27.811Z,18.71
2022-09-07T10:52:18.749Z,19.24
2022-09-07T10:54:48.964Z,19.31
2022-09-07T10:57:53.997Z,19.26
2022-09-07T11:00:22.944Z,19.41
2022-09-07T11:03:27.613Z,19.21
2022-09-07T11:06:11.075Z,19.45
2022-09-07T11:09:22.790Z,19.55
2022-09-07T11:12:01.131Z,19.59
2022-09-07T11:14:31.823Z,19.25
2022-09-07T11:17:03.287Z,16.54
2022-09-07T11:20:24.730Z,19.54
2022-09-07T11:23:18.616Z,19.54
2022-09-07T11:26:07.883Z,19.44
2022-09-07T11:28:47.129Z,16.46
2022-09-07T11:31:39.586Z,19.53
2022-09-07T11:34:24.299Z,18.97
2022-09-07T11:36:59.190Z,19.65
2022-09-07T11:39:35.871Z,17.29
2022-09-07T11:45:16.057Z,19.17
2022-09-07T11:47:54.562Z,18.77
2022-09-07T11:50:24.075Z,17.10
2022-09-07T11:52:56.642Z,19.60
2022-09-07T11:55:27.635Z,19.49
2022-09-07T11:58:14.987Z,17.98
2022-09-07T12:01:16.165Z,19.77
2022-09-07T12:04:15.491Z,19.70
2022-09-07T12:06:57.384Z,18.83
2022-09-07T12:09:39.984Z,17.59
2022-09-07T12:12:42.446Z,19.72
2022-09-07T12:15:28.116Z,19.75
2022-09-07T12:18:25.616Z,19.18
2022-09-07T12:20:52.757Z,18.29
2022-09-07T12:23:28.199Z,18.80
2022-09-07T12:26:44.020Z,19.86
2022-09-07T12:29:23.863Z,17.35
2022-09-07T12:32:07.422Z,19.05
2022-09-07T12:34:54.765Z,19.85
2022-09-07T12:37:27.694Z,19.84
2022-09-07T12:40:33.511Z,19.73
2022-09-07T12:43:12.728Z,19.82
2022-09-07T12:45:39.628Z,19.89
2022-09-07T12:48:15.583Z,19.92
2022-09-07T12:51:16.708Z,19.89
2022-09-07T12:54:08.808Z,19.85
2022-09-07T12:56:46.880Z,19.89
2022-09-07T12:59:32.267Z,18.95
2022-09-07T13:02:45.725Z,19.79
2022-09-07T13:05:37.586Z,19.95
2022-09-07T13:08:43.020Z,19.34
2022-09-07T13:11:40.573Z,19.42
2022-09-07T13:14:09.438Z,20.08
2022-09-07T13:19:50.964Z,19.87
2022-09-07T13:22:33.143Z,19.94
2022-09-07T13:25:02.419Z,19.64
2022-09-07T13:27:54.430Z,18.71
2022-09-07T13:30:43.554Z,19.50
2022-09-07T13:33:26.363Z,19.87
2022-09-07T13:35:57.130Z,19.29
2022-09-07T13:38:23.999Z,19.81
2022-09-07T13:40:53.395Z,19.88
2022-09-07T13:43:22.771Z,19.06
2022-09-07T13:45:56.023Z,19.92
2022-09-07T13:48:32.404Z,19.59
2022-09-07T13:51:02.095Z,19.88
2022-09-07T13:53:47.489Z,19.83
2022-09-07T13:56:17.252Z,19.71
2022-09-07T13:58:50.130Z,18.10
2022-09-07T14:01:23.287Z,18.81
2022-09-07T14:04:07.722Z,19.84
2022-09-07T14:06:36.734Z,19.87
2022-09-07T14:09:14.333Z,19.77
2022-09-07T14:11:47.077Z,19.76
2022-09-07T14:14:33.065Z,19.22
2022-09-07T14:17:00.178Z,19.90
2022-09-07T14:19:42.917Z,19.26
2022-09-07T14:22:16.425Z,19.01
2022-09-07T14:24:55.776Z,19.84
2022-09-07T14:27:26.368Z,19.84
2022-09-07T14:29:53.703Z,18.60
2022-09-07T14:32:25.215Z,19.87
2022-09-07T14:34:52.854Z,18.32
2022-09-07T14:37:23.205Z,17.43
2022-09-07T14:39:51.168Z,18.79
2022-09-07T14:42:23.081Z,18.29
2022-09-07T14:44:50.544Z,19.81
2022-09-07T14:47:30.581Z,19.86
2022-09-07T14:50:06.187Z,19.85
2022-09-07T14:52:43.531Z,19.86
2022-09-07T14:55:28.604Z,18.67
2022-09-07T14:58:30.970Z,19.81
2022-09-07T15:04:18.446Z,18.59
2022-09-07T15:07:02.642Z,18.91
2022-09-07T15:09:39.043Z,19.20
2022-09-07T15:12:27.187Z,17.00
2022-09-07T15:15:11.944Z,19.28
2022-09-07T15:17:46.227Z,17.66
2022-09-07T15:20:41.320Z,19.54
2022-09-07T15:23:11.337Z,19.46
2022-09-07T15:25:40.412Z,19.51
2022-09-07T15:28:08.044Z,18.13
2022-09-07T15:30:35.390Z,17.04
2022-09-07T15:33:02.449Z,19.05
2022-09-07T15:35:29.420Z,11.99
2022-09-07T15:38:05.326Z,15.27
2022-09-07T15:41:03.808Z,19.43
2022-09-07T15:43:30.560Z,18.49
2022-09-07T15:45:57.598Z,14.69
2022-09-07T15:48:25.508Z,17.90
2022-09-07T15:51:00.316Z,15.60
2022-09-07T15:56:15.647Z,18.97
2022-09-07T15:58:44.113Z,17.89
2022-09-07T16:04:01.666Z,17.39
2022-09-07T16:06:31.430Z,17.44
2022-09-07T16:08:58.393Z,16.18
2022-09-07T16:11:27.641Z,17.50
2022-09-07T16:14:01.822Z,18.39
2022-09-07T16:19:20.597Z,18.18
2022-09-07T16:21:48.053Z,14.76
2022-09-07T16:24:15.382Z,17.73
2022-09-07T16:26:42.525Z,14.12
2022-09-07T16:29:09.448Z,16.00
2022-09-07T16:31:37.127Z,15.10
2022-09-07T16:34:04.610Z,9.95
2022-09-07T16:36:31.616Z,17.31
2022-09-07T16:39:01.427Z,17.60
2022-09-07T16:41:32.052Z,17.55
2022-09-07T16:43:59.506Z,12.38
2022-09-07T16:46:28.954Z,15.91
2022-09-07T16:48:55.903Z,15.91
2022-09-07T16:51:24.266Z,15.65
2022-09-07T16:53:54.500Z,17.23
2022-09-07T16:56:24.485Z,15.96
2022-09-07T16:58:56.884Z,17.07
2022-09-07T17:01:26.667Z,16.60
2022-09-07T17:03:54.003Z,15.93
2022-09-07T17:06:23.848Z,16.63
2022-09-07T17:08:52.722Z,16.61
2022-09-07T17:11:22.964Z,15.88
2022-09-07T17:13:50.402Z,16.00
2022-09-07T17:16:22.830Z,16.27
2022-09-07T17:21:40.025Z,15.45
2022-09-07T17:24:08.799Z,15.35
2022-09-07T17:26:36.438Z,15.85
2022-09-07T17:29:03.394Z,13.69
2022-09-07T17:34:20.193Z,14.84
2022-09-07T17:36:47.776Z,13.49
2022-09-07T17:39:16.861Z,13.34
2022-09-07T17:41:44.889Z,10.11
2022-09-07T17:44:12.346Z,15.43
2022-09-07T17:46:39.505Z,14.99
2022-09-07T17:49:10.529Z,11.65
2022-09-07T17:51:37.512Z,13.41
2022-09-07T17:54:10.947Z,15.22
2022-09-07T17:56:39.592Z,14.48
2022-09-07T18:01:54.358Z,15.04
2022-09-07T18:04:22.108Z,15.05
2022-09-07T18:06:49.445Z,15.05
2022-09-07T18:09:16.591Z,15.01
2022-09-07T18:11:45.813Z,14.98
2022-09-07T18:14:14.953Z,14.56
2022-09-07T18:16:45.263Z,13.83
2022-09-07T18:19:13.561Z,14.79
2022-09-07T18:21:42.579Z,10.06
2022-09-07T18:24:17.297Z,14.73
2022-09-07T18:26:50.125Z,14.30
2022-09-07T18:29:28.580Z,14.64
2022-09-07T18:31:56.328Z,14.65
2022-09-07T18:34:23.571Z,12.88
2022-09-07T18:36:50.811Z,13.31
2022-09-07T18:39:17.801Z,12.34
2022-09-07T18:41:44.807Z,13.71
2022-09-07T18:46:58.652Z,13.91
2022-09-07T18:49:25.635Z,14.53
2022-09-07T18:54:41.418Z,12.73
2022-09-07T18:57:08.778Z,11.69
2022-09-07T18:59:36.261Z,13.16
2022-09-07T19:02:05.743Z,13.97
2022-09-07T19:07:21.258Z,13.89
2022-09-07T19:09:49.270Z,13.95
2022-09-07T19:12:18.294Z,13.67
2022-09-07T19:14:45.115Z,11.91
2022-09-07T19:17:12.243Z,11.89
2022-09-07T19:19:40.362Z,13.96
2022-09-07T19:22:07.408Z,5.62
2022-09-07T19:24:34.629Z,13.09
2022-09-07T19:27:01.591Z,13.38
2022-09-07T19:29:28.967Z,12.50
2022-09-07T19:32:05.118Z,13.42
2022-09-07T19:34:34.430Z,13.21
2022-09-07T19:37:02.120Z,13.27
2022-09-07T19:39:29.175Z,14.13
2022-09-07T19:41:58.446Z,13.18
2022-09-07T19:44:26.032Z,13.89
2022-09-07T19:46:53.034Z,13.10
2022-09-07T19:49:20.088Z,12.22
2022-09-07T19:51:49.738Z,14.18
2022-09-07T19:54:16.727Z,13.38
2022-09-07T19:56:45.059Z,13.80
2022-09-07T19:59:12.716Z,12.28
2022-09-07T20:01:40.935Z,12.61
2022-09-07T20:04:16.053Z,14.01
2022-09-07T20:06:47.060Z,13.96
2022-09-07T20:09:14.429Z,13.30
2022-09-07T20:11:46.079Z,13.56
2022-09-07T20:14:14.140Z,12.83
2022-09-07T20:16:42.006Z,13.55
2022-09-07T20:19:11.272Z,13.49
2022-09-07T20:21:38.391Z,12.03
2022-09-07T20:24:05.513Z,11.93
2022-09-07T20:26:33.042Z,12.13
2022-09-07T20:29:27.287Z,11.47
2022-09-07T20:31:47.710Z,13.69
2022-09-07T20:34:14.687Z,13.10
2022-09-07T20:36:42.099Z,12.46
2022-09-07T20:39:15.935Z,13.28
2022-09-07T20:41:42.889Z,13.52
2022-09-07T20:44:09.916Z,13.58
2022-09-07T20:46:37.361Z,5.30
2022-09-07T20:49:05.568Z,11.86
2022-09-07T20:51:32.739Z,4.83
2022-09-07T20:53:59.947Z,10.90
2022-09-07T20:56:28.699Z,13.27
2022-09-07T20:58:57.761Z,13.28
2022-09-07T21:01:24.842Z,13.33
2022-09-07T21:03:54.867Z,12.00
2022-09-07T21:06:23.515Z,10.55
2022-09-07T21:08:51.454Z,12.29
2022-09-07T21:11:27.041Z,12.95
2022-09-07T21:14:00.067Z,12.85
2022-09-07T21:16:27.921Z,11.57
2022-09-07T21:18:56.576Z,12.85
2022-09-07T21:21:24.973Z,10.64
2022-09-07T21:23:59.925Z,10.43
2022-09-07T21:26:30.544Z,12.74
2022-09-07T21:29:02.006Z,11.26
2022-09-07T21:31:31.836Z,12.68
2022-09-07T21:34:01.004Z,12.65
2022-09-07T21:36:29.007Z,12.60
2022-09-07T21:38:56.176Z,11.46
2022-09-07T21:41:25.353Z,11.80
2022-09-07T21:44:02.222Z,11.77
2022-09-07T21:46:31.721Z,12.36
2022-09-07T21:48:59.790Z,12.27
2022-09-07T21:51:28.917Z,11.42
2022-09-07T21:53:57.882Z,12.15
2022-09-07T21:56:25.314Z,11.77
2022-09-07T21:58:57.501Z,12.18
2022-09-07T22:01:26.269Z,10.49
2022-09-07T22:04:01.887Z,9.09
2022-09-07T22:06:29.650Z,10.05
2022-09-07T22:08:57.114Z,5.74
2022-09-07T22:11:26.215Z,10.86
2022-09-07T22:13:57.854Z,9.10
2022-09-07T22:16:24.930Z,10.89
2022-09-07T22:18:52.032Z,11.09
2022-09-07T22:21:21.967Z,11.60
2022-09-07T22:23:52.013Z,11.93
2022-09-07T22:26:21.906Z,11.99
2022-09-07T22:28:49.489Z,11.51
2022-09-07T22:31:36.578Z,11.49
2022-09-07T22:34:05.623Z,11.91
2022-09-07T22:36:35.032Z,7.56
2022-09-07T22:39:05.842Z,11.92
2022-09-07T22:41:34.964Z,11.85
2022-09-07T22:44:02.456Z,10.42
2022-09-07T22:46:31.141Z,10.66
2022-09-07T22:48:59.436Z,11.80
2022-09-07T22:51:27.353Z,11.72
2022-09-07T22:53:56.205Z,11.69
2022-09-07T22:56:26.208Z,8.46
2022-09-07T22:58:56.286Z,11.73
2022-09-07T23:01:25.063Z,10.91
2022-09-07T23:03:52.302Z,5.26
2022-09-07T23:06:31.183Z,5.83
2022-09-07T23:08:59.958Z,11.68
2022-09-07T23:11:27.526Z,11.67
2022-09-07T23:13:56.475Z,11.32
2022-09-07T23:16:23.941Z,10.56
2022-09-07T23:18:51.238Z,11.35
2022-09-07T23:21:18.806Z,10.75
2022-09-07T23:23:53.708Z,8.43
2022-09-07T23:26:22.705Z,11.60
2022-09-07T23:29:01.201Z,9.42
2022-09-07T23:31:29.816Z,9.41
2022-09-07T23:34:00.338Z,10.40
2022-09-07T23:36:27.757Z,10.99
2022-09-07T23:38:56.483Z,11.28
2022-09-07T23:41:25.297Z,11.31
2022-09-07T23:43:53.457Z,10.68
2022-09-07T23:46:21.287Z,9.29
2022-09-07T23:48:49.429Z,11.05
2022-09-07T23:51:21.306Z,9.59
2022-09-07T23:53:50.870Z,3.72
2022-09-07T23:56:17.795Z,9.20
2022-09-07T23:58:44.685Z,9.36
